.
WxDataArchive / Data Records for 2008-03-31
2008-03-30 March 2008 2008-04-01

Data Records for Monday, 31 March 2008

Time	Temp	Chill	HIndex	Humid	Dewpt	 Wind 	HiWind	WindDir	Rain 	Barom 
-----	----	-----	------	-----	-----	------	------	-------	-----	----- 
00:00	48.9	48.9	48.9	96	47.8	1	2	90	0.00	30.088 
00:05	48.9	48.9	48.9	96	47.8	1	3	90	0.00	30.084 
00:10	49.1	49.1	49.1	96	48.0	1	3	112	0.00	30.085 
00:15	49.1	49.1	49.1	96	48.0	1	4	112	0.00	30.083 
00:20	49.2	49.2	49.2	96	48.1	1	4	135	0.00	30.083 
00:25	49.2	49.2	49.2	96	48.1	1	4	112	0.00	30.081 
00:30	49.4	49.4	49.4	96	48.3	1	4	135	0.00	30.080 
00:35	49.4	49.4	49.4	96	48.3	1	5	112	0.00	30.080 
00:40	49.4	49.4	49.4	96	48.3	1	3	112	0.00	30.080 
00:45	49.5	49.5	49.5	96	48.4	2	5	112	0.00	30.080 
00:50	49.5	49.5	49.5	96	48.4	1	4	135	0.00	30.079 
00:55	49.6	49.6	49.6	96	48.5	1	4	112	0.00	30.078 
01:00	49.6	49.6	49.6	96	48.5	2	5	112	0.00	30.073 
01:05	49.8	49.8	49.8	96	48.7	2	6	90	0.00	30.066 
01:10	49.8	49.8	49.8	96	48.7	2	5	112	0.00	30.064 
01:15	49.9	49.9	49.9	96	48.8	2	4	135	0.00	30.062 
01:20	49.8	49.8	49.8	96	48.7	1	3	135	0.00	30.061 
01:25	49.8	49.8	49.8	96	48.7	1	4	135	0.00	30.060 
01:30	49.8	49.8	49.8	96	48.7	1	4	112	0.00	30.059 
01:35	49.9	49.9	49.9	96	48.8	1	5	112	0.00	30.059 
01:40	49.9	49.9	49.9	96	48.8	2	4	112	0.00	30.058 
01:45	49.9	49.9	49.9	96	48.8	2	5	112	0.00	30.054 
01:50	49.9	49.9	49.9	96	48.8	2	4	112	0.00	30.051 
01:55	50.1	50.1	50.1	96	49.0	2	4	112	0.00	30.048 
02:00	50.1	50.1	50.1	96	49.0	2	6	112	0.00	30.047 
02:05	50.1	50.1	50.1	96	49.0	2	4	112	0.00	30.046 
02:10	50.1	50.1	50.1	96	49.0	1	3	90	0.00	30.047 
02:15	50.2	50.2	50.2	96	49.1	1	4	112	0.00	30.047 
02:20	50.2	50.2	50.2	96	49.1	2	7	90	0.02	30.047 
02:25	50.4	50.4	50.4	96	49.3	2	5	90	0.01	30.045 
02:30	50.4	50.4	50.4	96	49.3	2	5	90	0.01	30.044 
02:35	50.4	50.4	50.4	96	49.3	1	4	90	0.01	30.044 
02:40	50.4	50.4	50.4	96	49.3	1	6	22	0.01	30.042 
02:45	50.4	50.4	50.4	96	49.3	1	4	90	0.00	30.042 
02:50	50.4	50.4	50.4	96	49.3	1	5	270	0.00	30.039 
02:55	50.4	50.4	50.4	96	49.3	1	4	248	0.00	30.037 
03:00	50.4	50.4	50.4	96	49.3	0	1	270	0.01	30.033 
03:05	50.2	50.2	50.2	96	49.1	1	2	270	0.00	30.032 
03:10	50.4	50.4	50.4	96	49.3	2	6	90	0.00	30.030 
03:15	50.4	50.4	50.4	96	49.3	1	5	112	0.00	30.029 
03:20	50.4	50.4	50.4	96	49.3	1	6	112	0.01	30.028 
03:25	50.4	50.4	50.4	96	49.3	1	4	90	0.00	30.028 
03:30	50.4	50.4	50.4	96	49.3	1	3	90	0.00	30.027 
03:35	50.5	50.5	50.5	96	49.4	1	2	90	0.00	30.024 
03:40	50.5	50.5	50.5	96	49.4	1	4	68	0.00	30.021 
03:45	50.7	50.7	50.7	96	49.6	1	3	112	0.00	30.018 
03:50	50.7	50.7	50.7	96	49.6	1	3	338	0.00	30.020 
03:55	50.7	50.7	50.7	96	49.6	0	2	270	0.00	30.018 
04:00	50.7	50.7	50.7	96	49.6	1	4	112	0.00	30.016 
04:05	50.8	50.8	50.8	96	49.7	1	4	90	0.00	30.018 
04:10	50.8	50.8	50.8	96	49.7	1	4	112	0.00	30.015 
04:15	50.8	50.8	50.8	96	49.7	1	3	112	0.00	30.014 
04:20	50.8	50.8	50.8	96	49.7	1	4	112	0.00	30.013 
04:25	50.8	50.8	50.8	96	49.7	2	4	112	0.00	30.013 
04:30	51.0	51.0	51.0	96	49.9	1	3	90	0.00	30.013 
04:35	51.0	51.0	51.0	96	49.9	1	4	90	0.00	30.012 
04:40	51.0	51.0	51.0	96	49.9	2	5	112	0.00	30.012 
04:45	51.1	51.1	51.1	96	50.0	1	5	112	0.00	30.010 
04:50	51.1	51.1	51.1	96	50.0	1	3	112	0.00	30.011 
04:55	51.1	51.1	51.1	96	50.0	1	4	112	0.00	30.012 
05:00	51.1	51.1	51.1	93	49.1	1	3	112	0.00	30.012 
05:05	51.3	51.3	51.3	96	50.2	1	7	45	0.00	30.011 
05:10	51.3	51.3	51.3	96	50.2	1	3	112	0.00	30.011 
05:15	51.3	51.3	51.3	96	50.2	1	3	112	0.00	30.009 
05:20	51.3	51.3	51.3	96	50.2	1	4	90	0.00	30.009 
05:25	51.3	51.3	51.3	96	50.2	2	4	112	0.00	30.007 
05:30	51.3	51.3	51.3	96	50.2	1	4	90	0.00	30.006 
05:35	51.4	51.4	51.4	96	50.3	1	4	112	0.00	30.003 
05:40	51.4	51.4	51.4	96	50.3	1	3	90	0.00	30.000 
05:45	51.4	51.4	51.4	96	50.3	1	4	112	0.00	29.998 
05:50	51.4	51.4	51.4	96	50.3	2	4	112	0.00	29.997 
05:55	51.6	51.6	51.6	97	50.8	2	5	135	0.00	29.997 
06:00	51.6	51.6	51.6	97	50.8	2	5	112	0.00	29.997 
06:05	51.7	51.7	51.7	97	50.9	2	5	90	0.00	30.001 
06:10	51.7	51.7	51.7	97	50.9	2	5	112	0.00	30.007 
06:15	51.7	51.7	51.7	97	50.9	1	6	135	0.00	30.005 
06:20	51.9	51.9	51.9	97	51.1	2	6	135	0.00	30.002 
06:25	51.9	51.9	51.9	97	51.1	2	6	112	0.00	30.001 
06:30	52.0	52.0	52.0	97	51.2	2	5	90	0.00	29.996 
06:35	52.0	52.0	52.0	97	51.2	1	3	112	0.00	29.997 
06:40	52.0	52.0	52.0	97	51.2	1	5	112	0.00	29.994 
06:45	52.2	52.2	52.2	97	51.4	2	6	112	0.00	29.989 
06:50	52.2	52.2	52.2	97	51.4	1	4	112	0.00	29.986 
06:55	52.2	52.2	52.2	97	51.4	1	5	0	0.00	29.986 
07:00	52.3	52.3	52.3	97	51.5	1	4	112	0.00	29.984 
07:05	52.5	52.5	52.5	97	51.7	2	5	112	0.00	29.981 
07:10	52.5	52.5	52.5	97	51.7	2	4	112	0.00	29.980 
07:15	52.6	52.6	52.6	97	51.8	2	4	90	0.00	29.980 
07:20	52.8	52.8	52.8	97	52.0	2	6	112	0.00	29.985 
07:25	52.8	52.8	52.8	97	52.0	2	4	90	0.00	29.986 
07:30	52.9	52.9	52.9	97	52.1	2	4	90	0.00	29.990 
07:35	52.9	52.9	52.9	97	52.1	2	4	112	0.00	29.985 
07:40	53.1	53.1	53.1	97	52.3	2	4	45	0.00	29.983 
07:45	53.1	53.1	53.1	97	52.3	1	4	90	0.00	29.982 
07:50	53.2	53.2	53.2	97	52.4	1	5	90	0.00	29.983 
07:55	53.3	53.3	53.3	97	52.5	1	5	270	0.00	29.986 
08:00	53.3	53.3	53.3	97	52.5	2	5	90	0.00	29.982 
08:05	53.5	53.5	53.5	97	52.7	2	5	112	0.00	29.981 
08:10	53.5	53.5	53.5	97	52.7	2	7	90	0.00	29.981 
08:15	53.6	53.6	53.6	97	52.8	1	4	112	0.00	29.979 
08:20	53.9	53.9	53.9	97	53.1	2	6	90	0.00	29.977 
08:25	53.9	53.9	53.9	97	53.1	2	5	90	0.00	29.978 
08:30	54.1	54.1	54.1	96	53.0	1	4	135	0.00	29.979 
08:35	54.1	54.1	54.1	96	53.0	2	6	90	0.00	29.983 
08:40	54.2	54.2	54.2	96	53.1	2	5	45	0.00	29.984 
08:45	54.2	54.2	54.2	96	53.1	2	9	112	0.00	29.988 
08:50	54.4	54.4	54.4	96	53.3	2	9	90	0.00	29.989 
08:55	54.4	54.4	54.4	96	53.3	1	5	90	0.00	29.990 
09:00	54.4	54.4	54.4	96	53.3	2	5	90	0.00	29.990 
09:05	54.4	54.4	54.4	96	53.3	2	7	90	0.00	29.985 
09:10	54.4	54.4	54.4	96	53.3	3	5	90	0.00	29.984 
09:15	54.4	54.4	54.4	96	53.3	2	7	90	0.00	29.981 
09:20	54.4	54.4	54.4	96	53.3	1	4	45	0.00	29.984 
09:25	54.5	54.5	54.5	96	53.4	1	4	90	0.00	29.988 
09:30	54.5	54.5	54.5	96	53.4	1	4	112	0.00	29.989 
09:35	54.5	54.5	54.5	96	53.4	1	6	45	0.00	29.989 
09:40	54.7	54.7	54.7	96	53.6	2	5	112	0.00	29.990 
09:45	54.7	54.7	54.7	96	53.6	2	6	90	0.00	29.986 
09:50	54.8	54.8	54.8	96	53.7	1	3	315	0.00	29.980 
09:55	54.8	54.8	54.8	96	53.7	2	6	68	0.00	29.978 
10:00	55.0	55.0	55.0	96	53.9	1	5	68	0.00	29.977 
10:05	55.0	55.0	55.0	95	53.6	2	11	248	0.00	29.976 
10:10	55.1	55.1	55.1	95	53.7	3	9	270	0.00	29.976 
10:15	55.3	55.3	55.3	95	53.9	2	5	248	0.00	29.972 
10:20	55.4	55.4	55.4	95	54.0	2	7	292	0.00	29.969 
10:25	55.6	55.6	55.6	94	53.9	2	6	45	0.00	29.968 
10:30	55.7	55.7	55.7	94	54.0	2	9	0	0.00	29.970 
10:35	55.9	55.9	55.9	93	53.9	1	4	202	0.00	29.964 
10:40	56.0	56.0	56.0	93	54.0	2	6	112	0.00	29.960 
10:45	56.2	56.2	56.2	92	53.9	2	6	248	0.00	29.962 
10:50	56.3	56.3	56.3	92	54.0	1	5	270	0.00	29.962 
10:55	56.5	56.5	56.5	92	54.2	1	5	292	0.00	29.963 
11:00	56.6	56.6	56.6	91	54.0	3	8	270	0.00	29.959 
11:05	56.9	56.9	56.9	91	54.3	2	5	45	0.00	29.959 
11:10	57.2	57.2	57.2	90	54.3	2	6	112	0.00	29.959 
11:15	57.5	57.5	57.5	90	54.6	2	6	90	0.00	29.958 
11:20	57.6	57.6	57.6	88	54.1	2	11	90	0.00	29.957 
11:25	57.8	57.8	57.8	88	54.3	2	7	90	0.00	29.957 
11:30	58.0	58.0	58.0	87	54.1	2	5	270	0.00	29.953 
11:35	58.3	58.3	58.3	87	54.4	3	9	112	0.00	29.949 
11:40	58.6	58.6	58.6	86	54.4	2	6	90	0.00	29.944 
11:45	58.7	58.7	58.7	86	54.5	2	7	90	0.00	29.940 
11:50	58.9	58.9	58.9	86	54.7	3	9	68	0.00	29.938 
11:55	59.0	59.0	59.0	86	54.8	1	5	112	0.00	29.938 
12:00	59.2	59.2	59.2	85	54.7	4	11	90	0.00	29.936 
12:05	59.2	59.2	59.2	85	54.7	3	9	270	0.00	29.931 
12:10	59.2	59.2	59.2	85	54.7	3	11	90	0.00	29.930 
12:15	59.0	59.0	59.0	85	54.5	3	7	90	0.00	29.926 
12:20	59.0	59.0	59.0	85	54.5	3	10	315	0.01	29.925 
12:25	58.9	58.9	58.9	85	54.4	4	15	90	0.00	29.922 
12:30	58.9	58.9	58.9	85	54.4	3	10	68	0.00	29.916 
12:35	58.9	58.9	58.9	85	54.4	3	10	90	0.00	29.917 
12:40	58.7	58.7	58.7	85	54.2	3	11	90	0.00	29.911 
12:45	58.7	58.7	58.7	85	54.2	3	12	292	0.00	29.911 
12:50	58.7	58.7	58.7	85	54.2	4	9	90	0.00	29.909 
12:55	58.9	58.9	58.9	85	54.4	2	7	338	0.00	29.904 
13:00	59.2	59.2	59.2	85	54.7	3	9	112	0.00	29.903 
13:05	59.0	59.0	59.0	85	54.5	3	9	90	0.00	29.904 
13:10	59.0	59.0	59.0	85	54.5	2	9	90	0.00	29.902 
13:15	58.9	58.9	58.9	85	54.4	3	10	90	0.00	29.898 
13:20	58.7	58.7	58.7	86	54.5	2	9	90	0.00	29.895 
13:25	58.7	58.7	58.7	86	54.5	3	10	22	0.00	29.895 
13:30	58.6	58.6	58.6	86	54.4	3	7	248	0.00	29.895 
13:35	58.4	58.4	58.4	86	54.2	2	6	68	0.00	29.893 
13:40	58.6	58.6	58.6	86	54.4	2	4	90	0.00	29.881 
13:45	58.7	58.7	58.7	86	54.5	3	7	90	0.00	29.878 
13:50	58.7	58.7	58.7	85	54.2	3	11	45	0.00	29.881 
13:55	58.7	58.7	58.7	86	54.5	2	7	0	0.00	29.878 
14:00	58.7	58.7	58.7	85	54.2	4	12	90	0.00	29.875 
14:05	58.7	58.7	58.7	86	54.5	3	7	68	0.00	29.870 
14:10	58.9	58.9	58.9	86	54.7	4	10	90	0.00	29.863 
14:15	59.2	59.2	59.2	85	54.7	4	10	90	0.00	29.853 
14:20	59.5	59.5	59.5	84	54.7	3	9	68	0.00	29.851 
14:25	59.5	59.5	59.5	84	54.7	4	10	90	0.00	29.850 
14:30	59.5	59.5	59.5	84	54.7	3	10	90	0.00	29.842 
14:35	59.5	59.5	59.5	84	54.7	3	9	248	0.00	29.842 
14:40	59.6	59.6	59.6	84	54.8	2	7	90	0.00	29.837 
14:45	59.9	59.9	59.9	83	54.7	2	6	90	0.00	29.832 
14:50	60.1	60.1	60.1	83	54.9	3	6	112	0.00	29.829 
14:55	59.9	59.9	59.9	83	54.7	3	6	338	0.00	29.828 
15:00	59.9	59.9	59.9	83	54.7	2	8	90	0.00	29.814 
15:05	60.1	60.1	60.1	83	54.9	3	12	90	0.00	29.813 
15:10	60.2	60.2	60.2	84	55.3	4	12	90	0.00	29.806 
15:15	60.2	60.2	60.2	86	56.0	2	6	90	0.00	29.800 
15:20	59.9	59.9	59.9	87	56.0	2	5	90	0.01	29.798 
15:25	59.9	59.9	59.9	88	56.3	1	3	112	0.00	29.798 
15:30	59.8	59.8	59.8	88	56.2	3	5	90	0.00	29.797 
15:35	59.9	59.9	59.9	88	56.3	2	6	112	0.00	29.784 
15:40	59.9	59.9	59.9	88	56.3	2	6	112	0.00	29.786 
15:45	60.1	60.1	60.1	88	56.5	2	7	112	0.00	29.782 
15:50	60.2	60.2	60.2	88	56.6	3	8	90	0.00	29.780 
15:55	60.9	60.9	60.9	87	57.0	3	11	90	0.00	29.769 
16:00	61.3	61.3	61.3	85	56.7	2	5	68	0.00	29.776 
16:05	61.2	61.2	61.2	84	56.3	4	9	90	0.00	29.770 
16:10	60.9	60.9	60.9	84	56.0	3	19	90	0.00	29.770 
16:15	60.5	60.5	60.5	84	55.6	3	11	45	0.00	29.765 
16:20	60.4	60.4	60.4	85	55.9	3	7	270	0.00	29.766 
16:25	60.1	60.1	60.1	85	55.6	3	7	248	0.00	29.768 
16:30	59.8	59.8	59.8	87	55.9	2	7	270	0.01	29.766 
16:35	59.6	59.6	59.6	88	56.0	3	9	248	0.00	29.768 
16:40	59.3	59.3	59.3	88	55.7	3	7	248	0.01	29.767 
16:45	59.3	59.3	59.3	89	56.1	1	4	270	0.00	29.765 
16:50	59.2	59.2	59.2	89	56.0	2	6	68	0.00	29.762 
16:55	59.3	59.3	59.3	89	56.1	2	6	22	0.00	29.753 
17:00	59.3	59.3	59.3	88	55.7	2	7	68	0.00	29.756 
17:05	59.5	59.5	59.5	88	55.9	3	6	248	0.00	29.765 
17:10	59.5	59.5	59.5	88	55.9	2	6	248	0.00	29.766 
17:15	59.5	59.5	59.5	88	55.9	2	7	90	0.00	29.763 
17:20	59.5	59.5	59.5	88	55.9	2	9	270	0.01	29.765 
17:25	59.6	59.6	59.6	88	56.0	2	6	270	0.00	29.767 
17:30	59.5	59.5	59.5	88	55.9	1	3	112	0.00	29.763 
17:35	59.5	59.5	59.5	89	56.3	2	5	45	0.01	29.763 
17:40	59.5	59.5	59.5	89	56.3	1	4	45	0.00	29.762 
17:45	59.3	59.3	59.3	90	56.4	2	6	248	0.01	29.779 
17:50	59.2	59.2	59.2	90	56.3	3	5	248	0.00	29.797 
17:55	59.0	59.0	59.0	90	56.1	3	10	248	0.02	29.796 
18:00	58.9	58.9	58.9	91	56.3	3	6	248	0.01	29.797 
18:05	58.7	58.7	58.7	91	56.1	2	6	248	0.01	29.796 
18:10	58.6	58.6	58.6	92	56.3	2	7	248	0.01	29.795 
18:15	58.4	58.4	58.4	92	56.1	1	4	248	0.01	29.787 
18:20	58.3	58.3	58.3	92	56.0	1	3	270	0.00	29.781 
18:25	58.3	58.3	58.3	92	56.0	0	2	270	0.00	29.779 
18:30	58.3	58.3	58.3	92	56.0	1	3	270	0.01	29.771 
18:35	58.1	58.1	58.1	92	55.8	1	5	90	0.01	29.766 
18:40	58.1	58.1	58.1	92	55.8	1	4	90	0.00	29.765 
18:45	58.1	58.1	58.1	92	55.8	3	7	90	0.00	29.753 
18:50	58.1	58.1	58.1	92	55.8	2	5	112	0.00	29.749 
18:55	58.1	58.1	58.1	92	55.8	2	4	90	0.00	29.745 
19:00	58.1	58.1	58.1	92	55.8	3	6	112	0.00	29.736 
19:05	58.1	58.1	58.1	92	55.8	2	6	112	0.00	29.734 
19:10	58.1	58.1	58.1	92	55.8	3	9	112	0.00	29.733 
19:15	58.1	58.1	58.1	92	55.8	2	6	112	0.01	29.726 
19:20	58.1	58.1	58.1	92	55.8	3	7	112	0.00	29.725 
19:25	58.3	58.3	58.3	92	56.0	3	7	112	0.00	29.721 
19:30	58.3	58.3	58.3	92	56.0	3	6	112	0.00	29.719 
19:35	58.3	58.3	58.3	92	56.0	3	7	90	0.00	29.720 
19:40	58.4	58.4	58.4	92	56.1	3	7	90	0.00	29.720 
19:45	58.3	58.3	58.3	92	56.0	4	9	112	0.00	29.721 
19:50	58.4	58.4	58.4	92	56.1	3	7	90	0.00	29.719 
19:55	58.3	58.3	58.3	92	56.0	3	7	112	0.00	29.718 
20:00	58.3	58.3	58.3	92	56.0	4	10	112	0.01	29.716 
20:05	58.4	58.4	58.4	92	56.1	4	10	90	0.00	29.714 
20:10	58.4	58.4	58.4	92	56.1	3	9	90	0.00	29.717 
20:15	58.4	58.4	58.4	92	56.1	3	10	112	0.01	29.718 
20:20	58.4	58.4	58.4	92	56.1	3	7	112	0.00	29.715 
20:25	58.4	58.4	58.4	92	56.1	4	10	90	0.01	29.712 
20:30	58.4	58.4	58.4	92	56.1	5	9	90	0.00	29.705 
20:35	58.4	58.4	58.4	92	56.1	5	14	90	0.01	29.709 
20:40	58.4	58.4	58.4	92	56.1	4	11	45	0.00	29.712 
20:45	58.3	58.3	58.3	92	56.0	3	10	90	0.01	29.712 
20:50	58.1	58.1	58.1	92	55.8	2	9	225	0.01	29.711 
20:55	58.1	58.1	58.1	92	55.8	2	6	22	0.01	29.710 
21:00	58.0	58.0	58.0	93	56.0	2	5	112	0.02	29.702 
21:05	58.0	58.0	58.0	93	56.0	2	6	112	0.00	29.701 
21:10	58.0	58.0	58.0	93	56.0	2	7	90	0.01	29.700 
21:15	58.0	58.0	58.0	93	56.0	2	5	68	0.00	29.700 
21:20	57.8	57.8	57.8	93	55.8	1	5	112	0.00	29.696 
21:25	57.8	57.8	57.8	94	56.1	2	7	112	0.01	29.690 
21:30	57.8	57.8	57.8	94	56.1	3	6	112	0.01	29.686 
21:35	57.8	57.8	57.8	94	56.1	3	10	112	0.01	29.684 
21:40	57.8	57.8	57.8	94	56.1	3	9	112	0.01	29.684 
21:45	57.8	57.8	57.8	94	56.1	3	6	90	0.02	29.686 
21:50	58.0	58.0	58.0	94	56.3	4	10	90	0.02	29.676 
21:55	58.0	58.0	58.0	94	56.3	3	7	112	0.02	29.676 
22:00	58.0	58.0	58.0	94	56.3	3	9	112	0.01	29.669 
22:05	58.0	58.0	58.0	95	56.6	3	5	112	0.00	29.666 
22:10	58.0	58.0	58.0	95	56.6	3	7	90	0.01	29.661 
22:15	58.0	58.0	58.0	95	56.6	2	6	90	0.00	29.655 
22:20	58.0	58.0	58.0	95	56.6	3	10	90	0.01	29.654 
22:25	58.0	58.0	58.0	95	56.6	3	9	90	0.00	29.652 
22:30	58.0	58.0	58.0	95	56.6	4	11	90	0.00	29.652 
22:35	58.0	58.0	58.0	95	56.6	4	7	90	0.01	29.650 
22:40	58.0	58.0	58.0	95	56.6	4	11	90	0.00	29.649 
22:45	58.0	58.0	58.0	95	56.6	5	11	90	0.01	29.641 
22:50	58.0	58.0	58.0	95	56.6	6	14	90	0.00	29.628 
22:55	58.0	58.0	58.0	94	56.3	6	13	90	0.01	29.605 
23:00	58.1	58.1	58.1	94	56.4	4	18	90	0.00	29.630 
23:05	58.1	58.1	58.1	94	56.4	3	9	90	0.00	29.632 
23:10	58.1	58.1	58.1	94	56.4	3	8	248	0.00	29.635 
23:15	58.1	58.1	58.1	94	56.4	3	13	90	0.00	29.633 
23:20	58.1	58.1	58.1	93	56.1	3	10	112	0.00	29.630 
23:25	58.3	58.3	58.3	93	56.3	4	11	90	0.00	29.627 
23:30	58.3	58.3	58.3	92	56.0	4	19	90	0.00	29.615 
23:35	58.3	58.3	58.3	92	56.0	4	13	90	0.00	29.624 
23:40	58.4	58.4	58.4	92	56.1	3	9	270	0.00	29.624 
23:45	58.4	58.4	58.4	92	56.1	4	13	292	0.00	29.618 
23:50	58.6	58.6	58.6	92	56.3	4	12	270	0.00	29.619 
23:55	58.6	58.6	58.6	92	56.3	5	18	248	0.00	29.617 

CoCoRaHS
IN-AL-39
A2 Web Hosting
Creative Commons License
GoDaddy
Look for:

loaded 2017-12-12 07:28:32 • last modified 2010-11-18 10:43:29
Privacy PolicyDisclaimer
• wx.awcolley.com is powered by PmWiki v.2002016 •
• all content (unless otherwise noted) © 2017 A W Colley